Flight Track Log - Related Links

Times and Time Zones

All times are in EDT time to prevent confusion due to time zone crossing. See the RPA4907 flight status page for this flight to view local times or setup timezone preferences in your user account.

Time Position Orientation Groundspeed Altitude Reporting Facility
EDT Latitude Longitude Course Direction KTS MPH feet Rate Location/Type
Sun 08:19:53 AM 39.0000 -77.5667 North 228 262 3,700  Level Potomac TRACON
Sun 08:20:53 AM 39.0667 -77.5833 349° North 253 291 5,800 2,161 Climbing Potomac TRACON
Sun 08:21:00 AM 39.2500 -77.4500 North  Level FlightAware Approximate
Sun 08:22:00 AM 39.3555 -77.4500 North  Level FlightAware Approximate
Sun 08:22:34 AM 39.1806 -77.5811 North 263 303 9,500  Level Washington Center
Sun 08:23:00 AM 39.4610 -77.4500 North  Level FlightAware Approximate
Sun 08:23:34 AM 39.2472 -77.5803 North 250 288 11,600  Level Washington Center
Sun 08:24:00 AM 39.5666 -77.4500 North  Level FlightAware Approximate
Sun 08:24:35 AM 39.3175 -77.6036 346° North 250 288 13,200  Level Washington Center
Sun 08:25:00 AM 39.6721 -77.4500 North  Level FlightAware Approximate
Sun 08:25:35 AM 39.3903 -77.6244 348° North 256 295 14,800  Level Washington Center
Sun 08:26:36 AM 39.4597 -77.5833 25° Northeast 256 295 16,000 610 Climbing Washington Center
Sun 08:27:33 AM 39.5419 -77.5236 29° Northeast 283 326 16,000 867 Level Washington Center
Sun 08:29:29 AM 39.6992 -77.4494 20° North 344 396 18,500 1,034 Climbing New York Center
Sun 08:30:27 AM 39.7992 -77.4508 359° North 322 371 19,000 508 Climbing New York Center
Sun 08:31:27 AM 39.8886 -77.4539 358° North 345 397 19,500 893 Climbing New York Center
Sun 08:32:28 AM 39.9847 -77.4522 North 345 397 20,800 744 Climbing New York Center
Sun 08:33:28 AM 40.0747 -77.4094 20° North 337 388 21,000 98 Climbing New York Center
Sun 08:34:30 AM 40.1786 -77.3431 26° Northeast 360 414 21,000 300 Level New York Center
Sun 08:35:28 AM 40.2714 -77.2867 25° Northeast 371 427 21,600 706 Climbing New York Center
Sun 08:36:29 AM 40.3642 -77.2300 25° Northeast 371 427 22,400 694 Climbing New York Center
Sun 08:37:29 AM 40.4567 -77.1758 24° Northeast 371 427 23,000 655 Climbing New York Center
Sun 08:38:28 AM 40.5492 -77.1244 23° Northeast 366 421 23,700 508 Climbing New York Center
Sun 08:39:27 AM 40.6394 -77.0697 25° Northeast 366 421 24,000 454 Climbing New York Center
Sun 08:40:27 AM 40.7322 -77.0125 25° Northeast 366 421 24,600 496 Climbing New York Center
Sun 08:41:28 AM 40.8267 -76.9581 24° Northeast 366 421 25,000 197 Climbing New York Center
Sun 08:42:29 AM 40.9217 -76.8981 26° Northeast 366 421 25,000  Level New York Center
Sun 08:43:29 AM 41.0203 -76.8408 24° Northeast 376 433 25,000  Level New York Center
Sun 08:44:29 AM 41.1192 -76.7808 25° Northeast 381 438 25,000  Level New York Center
Sun 08:45:27 AM 41.2225 -76.7183 24° Northeast 386 444 25,000  Level New York Center
Sun 08:46:28 AM 41.3233 -76.6581 24° Northeast 391 450 25,000  Level New York Center
Sun 08:47:28 AM 41.4264 -76.5953 25° Northeast 391 450 25,000  Level New York Center
Sun 08:48:29 AM 41.5189 -76.5394 24° Northeast 391 450 25,000  Level New York Center
Sun 08:49:28 AM 41.6197 -76.4733 26° Northeast 391 450 25,000 -291 Level New York Center
Sun 08:51:55 AM 41.8883 -76.3083 25° Northeast 394 453 24,000 -290 Descending Boston Center
Sun 08:52:55 AM 41.9906 -76.2450 25° Northeast 399 459 24,000  Level Boston Center
Sun 08:53:55 AM 42.0906 -76.1811 25° Northeast 399 459 24,000  Level Boston Center
Sun 08:54:55 AM 42.1769 -76.0881 39° Northeast 392 451 24,000  Level Boston Center
Sun 08:55:55 AM 42.2253 -75.9506 65° Northeast 385 443 24,000  Level Boston Center
Sun 08:56:55 AM 42.2708 -75.8156 65° Northeast 385 443 24,000 -400 Level Boston Center
Sun 08:57:55 AM 42.3142 -75.6944 64° Northeast 385 443 23,200 -900 Descending Boston Center
Sun 08:58:55 AM 42.3597 -75.5536 66° East 392 451 22,200 -1,000 Descending Boston Center
Sun 08:59:55 AM 42.4094 -75.4153 64° Northeast 397 457 21,200 -1,450 Descending Boston Center
Sun 09:00:55 AM 42.4547 -75.2739 66° East 403 464 19,300 -2,000 Descending Boston Center
Sun 09:01:55 AM 42.4997 -75.1353 66° East 403 464 17,200 -2,050 Descending Boston Center
Sun 09:02:55 AM 42.5444 -74.9989 66° East 398 458 15,200 -2,114 Descending Boston Center
Sun 09:03:40 AM 42.5825 -74.8906 64° Northeast 385 443 13,500 -2,129 Descending Boston Center
Sun 09:04:59 AM 42.6358 -74.7261 66° East 357 411 10,800 -1,556 Descending Boston Center
Sun 09:05:55 AM 42.6714 -74.6117 67° East 349 402 10,000 -517 Descending Boston Center
Sun 09:06:55 AM 42.7069 -74.5028 66° East 325 374 9,800 -700 Descending Boston Center
Sun 09:07:55 AM 42.7400 -74.3936 68° East 309 356 8,600 -1,150 Descending Boston Center
Sun 09:08:55 AM 42.7753 -74.2872 66° East 303 349 7,500 -1,200 Descending Boston Center
Sun 09:09:55 AM 42.8036 -74.1947 67° East 298 343 6,200 -1,450 Descending Boston Center
Sun 09:10:55 AM 42.8219 -74.0847 77° East 279 321 4,600 -1,100 Descending Boston Center
Sun 09:11:55 AM 42.8317 -74.0000 81° East 258 297 4,000 -600 Descending Boston Center

Login

Don't have an account? Register now (free) for customized features, flight alerts, and more!